Attu

KL  EN  DA
ASIAQ
Weather Now GREENLAND SURVEY
Updated [WGT/WGST] Temperature [°C] Wind [m/s] Air pressure [hPa] Relative humidity [%] Precipitation [mm]
Present Wind chill Speed Max
30.11 16:00n/an/a14,4 ⇘19,01002n/an/a
30.11 15:00n/an/a15,4 ⇘20,61002n/an/a
30.11 14:00n/an/a14,9 ⇘20,11003n/an/a
30.11 13:00n/an/a14,9 ⇘20,11003n/an/a
30.11 12:00n/an/a14,4 ⇓18,01004n/an/a
30.11 11:00n/an/a13,9 ⇓17,51005n/an/a
30.11 10:00n/an/a11,3 ⇓14,91006n/an/a
30.11 09:00n/an/a11,3 ⇓15,41006n/an/a
30.11 08:00n/an/a8,8 ⇓11,81006n/an/a
30.11 07:00n/an/a10,8 ⇓13,91007n/an/a
30.11 06:00n/an/a7,7 ⇓9,81007n/an/a
30.11 05:00n/an/a6,7 ⇓8,81008n/an/a
30.11 04:00n/an/a6,2 ⇓7,71008n/an/a
30.11 03:00n/an/a6,2 ⇘7,71008n/an/a
30.11 02:00n/an/a2,6 ⇘4,11008n/an/a
30.11 01:00n/an/a5,1 ⇘6,21008n/an/a
30.11 00:00n/an/a5,1 ⇒8,21008n/an/a
29.11 23:00n/an/a6,7 ⇗8,21008n/an/a
29.11 22:00n/an/a6,7 ⇗8,81008n/an/a
29.11 21:00n/an/a8,2 ⇗10,31007n/an/a
29.11 20:00n/an/a8,2 ⇗9,31007n/an/a
29.11 19:00n/an/a10,3 ⇗11,81006n/an/a
29.11 18:00n/an/a11,3 ⇗13,91006n/an/a
29.11 17:00n/an/a13,4 ⇗16,51004n/an/a
29.11 16:00n/an/a16,5 ⇗20,11003n/an/a
Position: (67.78416666666,-53.965)

[Back]